sensor_id;sensor_type;location;lat;lon;timestamp;temperature;humidity
15554;DHT22;7878;44.632;10.942;2023-05-10T00:00:44;19.90;90.10
15554;DHT22;7878;44.632;10.942;2023-05-10T00:03:09;19.80;90.20
15554;DHT22;7878;44.632;10.942;2023-05-10T00:05:35;19.80;90.20
15554;DHT22;7878;44.632;10.942;2023-05-10T00:08:01;19.70;90.30
15554;DHT22;7878;44.632;10.942;2023-05-10T00:10:26;19.70;90.60
15554;DHT22;7878;44.632;10.942;2023-05-10T00:12:52;19.60;90.60
15554;DHT22;7878;44.632;10.942;2023-05-10T00:15:18;19.60;90.50
15554;DHT22;7878;44.632;10.942;2023-05-10T00:17:43;19.60;90.70
15554;DHT22;7878;44.632;10.942;2023-05-10T00:20:10;19.60;90.80
15554;DHT22;7878;44.632;10.942;2023-05-10T00:22:35;19.60;90.90
15554;DHT22;7878;44.632;10.942;2023-05-10T00:25:01;19.60;90.90
15554;DHT22;7878;44.632;10.942;2023-05-10T00:27:27;19.60;91.20
15554;DHT22;7878;44.632;10.942;2023-05-10T00:29:53;19.60;91.10
15554;DHT22;7878;44.632;10.942;2023-05-10T00:32:18;19.40;91.20
15554;DHT22;7878;44.632;10.942;2023-05-10T00:34:44;19.40;91.50
15554;DHT22;7878;44.632;10.942;2023-05-10T00:37:09;19.30;91.20
15554;DHT22;7878;44.632;10.942;2023-05-10T00:39:35;19.30;91.40
15554;DHT22;7878;44.632;10.942;2023-05-10T00:42:01;19.20;91.30
15554;DHT22;7878;44.632;10.942;2023-05-10T00:44:27;19.20;91.40
15554;DHT22;7878;44.632;10.942;2023-05-10T00:46:53;19.20;91.80
15554;DHT22;7878;44.632;10.942;2023-05-10T00:49:19;19.20;91.60
15554;DHT22;7878;44.632;10.942;2023-05-10T00:51:46;19.20;91.70
15554;DHT22;7878;44.632;10.942;2023-05-10T00:54:14;19.30;91.90
15554;DHT22;7878;44.632;10.942;2023-05-10T00:56:40;19.20;92.10
15554;DHT22;7878;44.632;10.942;2023-05-10T00:59:06;19.20;91.80
15554;DHT22;7878;44.632;10.942;2023-05-10T01:01:33;19.20;92.10
15554;DHT22;7878;44.632;10.942;2023-05-10T01:03:59;19.20;91.80
15554;DHT22;7878;44.632;10.942;2023-05-10T01:06:25;19.10;91.90
15554;DHT22;7878;44.632;10.942;2023-05-10T01:08:50;19.00;92.00
15554;DHT22;7878;44.632;10.942;2023-05-10T01:11:16;19.00;92.00
15554;DHT22;7878;44.632;10.942;2023-05-10T01:13:43;19.00;92.40
15554;DHT22;7878;44.632;10.942;2023-05-10T01:16:10;18.90;92.20
15554;DHT22;7878;44.632;10.942;2023-05-10T01:18:39;18.90;92.40
15554;DHT22;7878;44.632;10.942;2023-05-10T01:26:40;18.80;93.30
15554;DHT22;7878;44.632;10.942;2023-05-10T01:37:18;18.80;93.80
15554;DHT22;7878;44.632;10.942;2023-05-10T01:39:57;18.90;93.70
15554;DHT22;7878;44.632;10.942;2023-05-10T01:42:26;18.90;94.60
15554;DHT22;7878;44.632;10.942;2023-05-10T01:45:02;18.90;94.10
15554;DHT22;7878;44.632;10.942;2023-05-10T01:47:38;18.90;94.20
15554;DHT22;7878;44.632;10.942;2023-05-10T01:50:22;18.90;94.00
15554;DHT22;7878;44.632;10.942;2023-05-10T01:52:53;19.00;94.00
15554;DHT22;7878;44.632;10.942;2023-05-10T01:55:21;19.00;94.40
15554;DHT22;7878;44.632;10.942;2023-05-10T01:57:53;18.90;94.00
15554;DHT22;7878;44.632;10.942;2023-05-10T02:00:21;18.90;94.30
15554;DHT22;7878;44.632;10.942;2023-05-10T02:02:48;18.90;94.10
15554;DHT22;7878;44.632;10.942;2023-05-10T02:05:16;18.90;94.40
15554;DHT22;7878;44.632;10.942;2023-05-10T02:07:43;18.90;94.60
15554;DHT22;7878;44.632;10.942;2023-05-10T02:10:10;18.90;94.60
15554;DHT22;7878;44.632;10.942;2023-05-10T02:12:39;18.80;94.70
15554;DHT22;7878;44.632;10.942;2023-05-10T02:15:07;18.80;94.80
15554;DHT22;7878;44.632;10.942;2023-05-10T02:17:35;18.80;94.80
15554;DHT22;7878;44.632;10.942;2023-05-10T02:20:03;18.80;95.10
15554;DHT22;7878;44.632;10.942;2023-05-10T02:22:30;18.80;95.30
15554;DHT22;7878;44.632;10.942;2023-05-10T02:24:58;18.80;94.90
15554;DHT22;7878;44.632;10.942;2023-05-10T02:27:25;18.70;94.90
15554;DHT22;7878;44.632;10.942;2023-05-10T02:29:53;18.70;94.90
15554;DHT22;7878;44.632;10.942;2023-05-10T02:32:21;18.70;95.10
15554;DHT22;7878;44.632;10.942;2023-05-10T02:34:49;18.60;94.80
15554;DHT22;7878;44.632;10.942;2023-05-10T02:37:19;18.60;94.70
15554;DHT22;7878;44.632;10.942;2023-05-10T02:39:53;18.60;94.80
15554;DHT22;7878;44.632;10.942;2023-05-10T02:42:22;18.60;95.70
15554;DHT22;7878;44.632;10.942;2023-05-10T02:44:51;18.50;95.20
15554;DHT22;7878;44.632;10.942;2023-05-10T02:47:18;18.30;95.60
15554;DHT22;7878;44.632;10.942;2023-05-10T02:49:44;18.20;95.90
15554;DHT22;7878;44.632;10.942;2023-05-10T02:52:10;18.10;96.00
15554;DHT22;7878;44.632;10.942;2023-05-10T02:54:45;17.90;96.30
15554;DHT22;7878;44.632;10.942;2023-05-10T02:57:16;17.70;96.90
15554;DHT22;7878;44.632;10.942;2023-05-10T02:59:44;17.50;97.20
15554;DHT22;7878;44.632;10.942;2023-05-10T03:02:12;17.40;97.40
15554;DHT22;7878;44.632;10.942;2023-05-10T03:04:38;17.20;97.90
15554;DHT22;7878;44.632;10.942;2023-05-10T03:07:04;17.10;98.60
15554;DHT22;7878;44.632;10.942;2023-05-10T03:09:31;17.10;98.50
15554;DHT22;7878;44.632;10.942;2023-05-10T03:12:14;17.00;98.70
15554;DHT22;7878;44.632;10.942;2023-05-10T03:15:11;17.10;99.60
15554;DHT22;7878;44.632;10.942;2023-05-10T03:18:01;17.10;99.90
15554;DHT22;7878;44.632;10.942;2023-05-10T03:20:48;17.20;99.70
15554;DHT22;7878;44.632;10.942;2023-05-10T03:25:55;17.30;99.90
15554;DHT22;7878;44.632;10.942;2023-05-10T03:28:21;17.20;98.90
15554;DHT22;7878;44.632;10.942;2023-05-10T03:30:47;17.30;98.70
15554;DHT22;7878;44.632;10.942;2023-05-10T03:33:13;17.40;99.00
15554;DHT22;7878;44.632;10.942;2023-05-10T03:35:39;17.40;98.50
15554;DHT22;7878;44.632;10.942;2023-05-10T03:38:05;17.40;98.80
15554;DHT22;7878;44.632;10.942;2023-05-10T03:40:30;17.30;98.90
15554;DHT22;7878;44.632;10.942;2023-05-10T03:42:58;17.30;98.80
15554;DHT22;7878;44.632;10.942;2023-05-10T03:45:24;17.40;98.70
15554;DHT22;7878;44.632;10.942;2023-05-10T03:47:51;17.40;98.70
15554;DHT22;7878;44.632;10.942;2023-05-10T03:50:16;17.40;98.50
15554;DHT22;7878;44.632;10.942;2023-05-10T03:52:42;17.50;98.70
15554;DHT22;7878;44.632;10.942;2023-05-10T03:55:09;17.40;98.70
15554;DHT22;7878;44.632;10.942;2023-05-10T03:57:34;17.40;98.50
15554;DHT22;7878;44.632;10.942;2023-05-10T04:00:00;17.40;98.40
15554;DHT22;7878;44.632;10.942;2023-05-10T04:02:26;17.40;98.40
15554;DHT22;7878;44.632;10.942;2023-05-10T04:04:52;17.50;99.00
15554;DHT22;7878;44.632;10.942;2023-05-10T04:07:17;17.40;98.30
15554;DHT22;7878;44.632;10.942;2023-05-10T04:09:43;17.40;98.30
15554;DHT22;7878;44.632;10.942;2023-05-10T04:12:09;17.40;98.50
15554;DHT22;7878;44.632;10.942;2023-05-10T04:14:35;17.40;98.50
15554;DHT22;7878;44.632;10.942;2023-05-10T04:17:00;17.40;98.50
15554;DHT22;7878;44.632;10.942;2023-05-10T04:19:30;17.50;98.20
15554;DHT22;7878;44.632;10.942;2023-05-10T04:21:55;17.50;98.40
15554;DHT22;7878;44.632;10.942;2023-05-10T04:24:21;17.50;98.20
15554;DHT22;7878;44.632;10.942;2023-05-10T04:26:47;17.50;98.20
15554;DHT22;7878;44.632;10.942;2023-05-10T04:29:12;17.40;98.10
15554;DHT22;7878;44.632;10.942;2023-05-10T04:31:38;17.40;98.00
15554;DHT22;7878;44.632;10.942;2023-05-10T04:34:04;17.30;98.30
15554;DHT22;7878;44.632;10.942;2023-05-10T04:36:29;17.20;98.50
15554;DHT22;7878;44.632;10.942;2023-05-10T04:38:55;17.20;98.40
15554;DHT22;7878;44.632;10.942;2023-05-10T04:41:21;17.10;98.40
15554;DHT22;7878;44.632;10.942;2023-05-10T04:43:47;17.10;98.60
15554;DHT22;7878;44.632;10.942;2023-05-10T04:46:14;17.10;98.60
15554;DHT22;7878;44.632;10.942;2023-05-10T04:48:40;17.00;98.60
15554;DHT22;7878;44.632;10.942;2023-05-10T04:51:06;17.00;98.90
15554;DHT22;7878;44.632;10.942;2023-05-10T04:53:32;16.90;98.80
15554;DHT22;7878;44.632;10.942;2023-05-10T04:55:57;16.90;98.70
15554;DHT22;7878;44.632;10.942;2023-05-10T04:58:23;16.90;99.10
15554;DHT22;7878;44.632;10.942;2023-05-10T05:00:49;16.90;99.10
15554;DHT22;7878;44.632;10.942;2023-05-10T05:03:14;16.90;99.20
15554;DHT22;7878;44.632;10.942;2023-05-10T05:05:40;16.90;99.10
15554;DHT22;7878;44.632;10.942;2023-05-10T05:08:06;17.00;99.20
15554;DHT22;7878;44.632;10.942;2023-05-10T05:10:31;16.90;99.20
15554;DHT22;7878;44.632;10.942;2023-05-10T05:12:57;16.90;99.20
15554;DHT22;7878;44.632;10.942;2023-05-10T05:15:23;16.80;99.60
15554;DHT22;7878;44.632;10.942;2023-05-10T05:17:48;16.90;99.40
15554;DHT22;7878;44.632;10.942;2023-05-10T05:20:14;16.80;99.50
15554;DHT22;7878;44.632;10.942;2023-05-10T05:22:40;16.80;99.40
15554;DHT22;7878;44.632;10.942;2023-05-10T05:25:06;16.80;99.60
15554;DHT22;7878;44.632;10.942;2023-05-10T05:27:32;16.80;99.50
15554;DHT22;7878;44.632;10.942;2023-05-10T05:29:58;16.90;99.60
15554;DHT22;7878;44.632;10.942;2023-05-10T05:32:24;16.90;99.30
15554;DHT22;7878;44.632;10.942;2023-05-10T05:34:50;16.90;99.40
15554;DHT22;7878;44.632;10.942;2023-05-10T05:37:20;17.00;99.30
15554;DHT22;7878;44.632;10.942;2023-05-10T05:39:46;17.00;99.30
15554;DHT22;7878;44.632;10.942;2023-05-10T05:42:13;17.00;99.50
15554;DHT22;7878;44.632;10.942;2023-05-10T05:44:39;17.00;99.40
15554;DHT22;7878;44.632;10.942;2023-05-10T05:47:05;16.90;99.50
15554;DHT22;7878;44.632;10.942;2023-05-10T05:49:31;16.80;99.50
15554;DHT22;7878;44.632;10.942;2023-05-10T05:52:01;16.70;99.70
15554;DHT22;7878;44.632;10.942;2023-05-10T05:54:27;16.70;99.90
15554;DHT22;7878;44.632;10.942;2023-05-10T05:56:59;16.70;99.90
15554;DHT22;7878;44.632;10.942;2023-05-10T05:59:26;16.70;99.90
15554;DHT22;7878;44.632;10.942;2023-05-10T06:01:51;16.70;99.90
15554;DHT22;7878;44.632;10.942;2023-05-10T06:04:18;16.80;99.90
15554;DHT22;7878;44.632;10.942;2023-05-10T06:06:43;16.70;99.90
15554;DHT22;7878;44.632;10.942;2023-05-10T06:09:09;16.70;99.90
15554;DHT22;7878;44.632;10.942;2023-05-10T06:11:36;16.70;99.90
15554;DHT22;7878;44.632;10.942;2023-05-10T06:14:02;16.80;99.90
15554;DHT22;7878;44.632;10.942;2023-05-10T06:16:30;16.70;99.90
15554;DHT22;7878;44.632;10.942;2023-05-10T06:18:55;16.70;99.90
15554;DHT22;7878;44.632;10.942;2023-05-10T06:21:21;16.70;99.90
15554;DHT22;7878;44.632;10.942;2023-05-10T06:23:47;16.70;99.90
15554;DHT22;7878;44.632;10.942;2023-05-10T06:26:12;16.60;99.90
15554;DHT22;7878;44.632;10.942;2023-05-10T06:28:39;16.60;99.90
15554;DHT22;7878;44.632;10.942;2023-05-10T06:31:05;16.60;99.90
15554;DHT22;7878;44.632;10.942;2023-05-10T06:33:31;16.60;99.90
15554;DHT22;7878;44.632;10.942;2023-05-10T06:35:57;16.60;99.90
15554;DHT22;7878;44.632;10.942;2023-05-10T06:38:23;16.60;99.90
15554;DHT22;7878;44.632;10.942;2023-05-10T06:40:48;16.70;99.90
15554;DHT22;7878;44.632;10.942;2023-05-10T06:43:14;16.60;99.90
15554;DHT22;7878;44.632;10.942;2023-05-10T06:45:40;16.60;99.90
15554;DHT22;7878;44.632;10.942;2023-05-10T06:48:06;16.60;99.90
15554;DHT22;7878;44.632;10.942;2023-05-10T06:50:32;16.50;99.90
15554;DHT22;7878;44.632;10.942;2023-05-10T06:52:58;16.50;99.90
15554;DHT22;7878;44.632;10.942;2023-05-10T06:55:24;16.50;99.90
15554;DHT22;7878;44.632;10.942;2023-05-10T06:57:50;16.50;99.90
15554;DHT22;7878;44.632;10.942;2023-05-10T07:00:17;16.50;99.90
15554;DHT22;7878;44.632;10.942;2023-05-10T07:02:43;16.40;99.90
15554;DHT22;7878;44.632;10.942;2023-05-10T07:05:09;16.40;99.90
15554;DHT22;7878;44.632;10.942;2023-05-10T07:07:34;16.40;99.90
15554;DHT22;7878;44.632;10.942;2023-05-10T07:10:00;16.40;99.90
15554;DHT22;7878;44.632;10.942;2023-05-10T07:12:27;16.40;99.90
15554;DHT22;7878;44.632;10.942;2023-05-10T07:14:52;16.30;99.90
15554;DHT22;7878;44.632;10.942;2023-05-10T07:17:18;16.40;99.90
15554;DHT22;7878;44.632;10.942;2023-05-10T07:19:44;16.40;99.90
15554;DHT22;7878;44.632;10.942;2023-05-10T07:22:09;16.40;99.90
15554;DHT22;7878;44.632;10.942;2023-05-10T07:24:35;16.40;99.90
15554;DHT22;7878;44.632;10.942;2023-05-10T07:27:01;16.40;99.90
15554;DHT22;7878;44.632;10.942;2023-05-10T07:29:27;16.40;99.90
15554;DHT22;7878;44.632;10.942;2023-05-10T07:31:53;16.40;99.90
15554;DHT22;7878;44.632;10.942;2023-05-10T07:34:19;16.40;99.90
15554;DHT22;7878;44.632;10.942;2023-05-10T07:36:45;16.50;99.90
15554;DHT22;7878;44.632;10.942;2023-05-10T07:39:11;16.40;99.90
15554;DHT22;7878;44.632;10.942;2023-05-10T07:41:37;16.30;99.90
15554;DHT22;7878;44.632;10.942;2023-05-10T07:44:04;16.30;99.90
15554;DHT22;7878;44.632;10.942;2023-05-10T07:46:30;16.40;99.90
15554;DHT22;7878;44.632;10.942;2023-05-10T07:48:56;16.40;99.90
15554;DHT22;7878;44.632;10.942;2023-05-10T07:51:21;16.40;99.90
15554;DHT22;7878;44.632;10.942;2023-05-10T07:53:47;16.50;99.90
15554;DHT22;7878;44.632;10.942;2023-05-10T07:56:27;16.50;99.90
15554;DHT22;7878;44.632;10.942;2023-05-10T07:58:56;16.50;99.90
15554;DHT22;7878;44.632;10.942;2023-05-10T08:01:22;16.50;99.90
15554;DHT22;7878;44.632;10.942;2023-05-10T08:03:48;16.40;99.90
15554;DHT22;7878;44.632;10.942;2023-05-10T08:06:16;16.50;99.90
15554;DHT22;7878;44.632;10.942;2023-05-10T08:08:42;16.50;99.90
15554;DHT22;7878;44.632;10.942;2023-05-10T08:11:07;16.50;99.90
15554;DHT22;7878;44.632;10.942;2023-05-10T08:13:34;16.50;99.90
15554;DHT22;7878;44.632;10.942;2023-05-10T08:16:00;16.50;99.90
15554;DHT22;7878;44.632;10.942;2023-05-10T08:18:25;16.50;99.90
15554;DHT22;7878;44.632;10.942;2023-05-10T08:20:51;16.40;99.90
15554;DHT22;7878;44.632;10.942;2023-05-10T08:23:17;16.40;99.90
15554;DHT22;7878;44.632;10.942;2023-05-10T08:25:42;16.40;99.90
15554;DHT22;7878;44.632;10.942;2023-05-10T08:28:08;16.40;99.90
15554;DHT22;7878;44.632;10.942;2023-05-10T08:30:34;16.30;99.90
15554;DHT22;7878;44.632;10.942;2023-05-10T08:33:00;16.30;99.90
15554;DHT22;7878;44.632;10.942;2023-05-10T08:35:25;16.20;99.90
15554;DHT22;7878;44.632;10.942;2023-05-10T08:37:51;16.20;99.90
15554;DHT22;7878;44.632;10.942;2023-05-10T08:40:19;16.20;99.90
15554;DHT22;7878;44.632;10.942;2023-05-10T08:42:53;16.10;99.90
15554;DHT22;7878;44.632;10.942;2023-05-10T08:45:23;16.00;99.90
15554;DHT22;7878;44.632;10.942;2023-05-10T08:47:50;16.00;99.90
15554;DHT22;7878;44.632;10.942;2023-05-10T08:50:19;16.00;99.90
15554;DHT22;7878;44.632;10.942;2023-05-10T08:52:46;15.90;99.90
15554;DHT22;7878;44.632;10.942;2023-05-10T08:55:13;15.90;99.90
15554;DHT22;7878;44.632;10.942;2023-05-10T08:57:39;15.90;99.90
15554;DHT22;7878;44.632;10.942;2023-05-10T09:00:05;15.90;99.90
15554;DHT22;7878;44.632;10.942;2023-05-10T09:02:31;15.90;99.90
15554;DHT22;7878;44.632;10.942;2023-05-10T09:04:57;15.90;99.90
15554;DHT22;7878;44.632;10.942;2023-05-10T09:07:23;15.80;99.90
15554;DHT22;7878;44.632;10.942;2023-05-10T09:09:49;15.90;99.90
15554;DHT22;7878;44.632;10.942;2023-05-10T09:12:15;15.90;99.90
15554;DHT22;7878;44.632;10.942;2023-05-10T09:14:42;15.80;99.90
15554;DHT22;7878;44.632;10.942;2023-05-10T09:17:09;15.80;99.90
15554;DHT22;7878;44.632;10.942;2023-05-10T09:19:35;15.90;99.90
15554;DHT22;7878;44.632;10.942;2023-05-10T09:22:01;15.90;99.90
15554;DHT22;7878;44.632;10.942;2023-05-10T09:24:29;15.90;99.90
15554;DHT22;7878;44.632;10.942;2023-05-10T09:26:57;15.90;99.90
15554;DHT22;7878;44.632;10.942;2023-05-10T09:29:23;15.90;99.90
15554;DHT22;7878;44.632;10.942;2023-05-10T09:31:51;16.00;99.90
15554;DHT22;7878;44.632;10.942;2023-05-10T09:34:18;16.10;99.90
15554;DHT22;7878;44.632;10.942;2023-05-10T09:37:01;16.10;99.90
15554;DHT22;7878;44.632;10.942;2023-05-10T09:39:32;16.20;99.90
15554;DHT22;7878;44.632;10.942;2023-05-10T09:41:59;16.20;99.90
15554;DHT22;7878;44.632;10.942;2023-05-10T09:44:27;16.30;99.90
15554;DHT22;7878;44.632;10.942;2023-05-10T09:46:52;16.30;99.90
15554;DHT22;7878;44.632;10.942;2023-05-10T09:49:20;16.40;99.90
15554;DHT22;7878;44.632;10.942;2023-05-10T09:51:46;16.30;99.90
15554;DHT22;7878;44.632;10.942;2023-05-10T09:54:14;16.30;99.90
15554;DHT22;7878;44.632;10.942;2023-05-10T09:56:40;16.20;99.90
15554;DHT22;7878;44.632;10.942;2023-05-10T09:59:09;16.30;99.90
15554;DHT22;7878;44.632;10.942;2023-05-10T10:01:34;16.30;99.90
15554;DHT22;7878;44.632;10.942;2023-05-10T10:04:08;16.30;99.90
15554;DHT22;7878;44.632;10.942;2023-05-10T10:06:40;16.30;99.90
15554;DHT22;7878;44.632;10.942;2023-05-10T10:09:06;16.30;99.90
15554;DHT22;7878;44.632;10.942;2023-05-10T10:11:34;16.30;99.90
15554;DHT22;7878;44.632;10.942;2023-05-10T10:14:00;16.30;99.90
15554;DHT22;7878;44.632;10.942;2023-05-10T10:16:29;16.30;99.90
15554;DHT22;7878;44.632;10.942;2023-05-10T10:18:55;16.40;99.90
15554;DHT22;7878;44.632;10.942;2023-05-10T10:21:22;16.30;99.90
15554;DHT22;7878;44.632;10.942;2023-05-10T10:23:47;16.30;99.90
15554;DHT22;7878;44.632;10.942;2023-05-10T10:26:14;16.30;99.90
15554;DHT22;7878;44.632;10.942;2023-05-10T10:34:06;16.40;99.90
15554;DHT22;7878;44.632;10.942;2023-05-10T10:36:44;16.40;99.90
15554;DHT22;7878;44.632;10.942;2023-05-10T10:39:10;16.40;99.90
15554;DHT22;7878;44.632;10.942;2023-05-10T10:41:48;16.40;99.90
15554;DHT22;7878;44.632;10.942;2023-05-10T10:52:27;16.30;99.90
15554;DHT22;7878;44.632;10.942;2023-05-10T10:55:09;16.40;99.90
15554;DHT22;7878;44.632;10.942;2023-05-10T11:00:23;16.40;99.90
15554;DHT22;7878;44.632;10.942;2023-05-10T11:02:50;16.40;99.90
15554;DHT22;7878;44.632;10.942;2023-05-10T11:07:58;16.40;99.90
15554;DHT22;7878;44.632;10.942;2023-05-10T11:10:26;16.40;99.90
15554;DHT22;7878;44.632;10.942;2023-05-10T11:13:08;16.40;99.90
15554;DHT22;7878;44.632;10.942;2023-05-10T11:15:39;16.40;99.90
15554;DHT22;7878;44.632;10.942;2023-05-10T11:18:24;16.30;99.90
15554;DHT22;7878;44.632;10.942;2023-05-10T11:23:29;16.40;99.90
15554;DHT22;7878;44.632;10.942;2023-05-10T11:25:55;16.40;99.90
15554;DHT22;7878;44.632;10.942;2023-05-10T11:28:21;16.40;99.90
15554;DHT22;7878;44.632;10.942;2023-05-10T11:30:47;16.30;99.90
15554;DHT22;7878;44.632;10.942;2023-05-10T11:33:17;16.30;99.90
15554;DHT22;7878;44.632;10.942;2023-05-10T11:35:43;16.30;99.90
15554;DHT22;7878;44.632;10.942;2023-05-10T11:38:09;16.30;99.90
15554;DHT22;7878;44.632;10.942;2023-05-10T11:40:36;16.30;99.90
15554;DHT22;7878;44.632;10.942;2023-05-10T11:43:03;16.30;99.90
15554;DHT22;7878;44.632;10.942;2023-05-10T11:45:32;16.40;99.90
15554;DHT22;7878;44.632;10.942;2023-05-10T11:47:59;16.40;99.90
15554;DHT22;7878;44.632;10.942;2023-05-10T11:50:25;16.40;99.90
15554;DHT22;7878;44.632;10.942;2023-05-10T11:52:56;16.40;99.90
15554;DHT22;7878;44.632;10.942;2023-05-10T11:55:22;16.40;99.90
15554;DHT22;7878;44.632;10.942;2023-05-10T11:57:59;16.40;99.90
15554;DHT22;7878;44.632;10.942;2023-05-10T12:00:25;16.40;99.90
15554;DHT22;7878;44.632;10.942;2023-05-10T12:02:51;16.40;99.90
15554;DHT22;7878;44.632;10.942;2023-05-10T12:05:16;16.40;99.90
15554;DHT22;7878;44.632;10.942;2023-05-10T12:07:42;16.40;99.90
15554;DHT22;7878;44.632;10.942;2023-05-10T12:10:12;16.50;99.90
15554;DHT22;7878;44.632;10.942;2023-05-10T12:12:47;16.50;99.90
15554;DHT22;7878;44.632;10.942;2023-05-10T12:15:23;16.50;99.90
15554;DHT22;7878;44.632;10.942;2023-05-10T12:17:50;16.50;99.90
15554;DHT22;7878;44.632;10.942;2023-05-10T12:20:18;16.60;99.90
15554;DHT22;7878;44.632;10.942;2023-05-10T12:22:54;16.60;99.90
15554;DHT22;7878;44.632;10.942;2023-05-10T12:25:23;16.60;99.90
15554;DHT22;7878;44.632;10.942;2023-05-10T12:27:55;16.60;99.90
15554;DHT22;7878;44.632;10.942;2023-05-10T12:30:29;16.60;99.90
15554;DHT22;7878;44.632;10.942;2023-05-10T12:33:02;16.50;99.90
15554;DHT22;7878;44.632;10.942;2023-05-10T12:35:32;16.50;99.90
15554;DHT22;7878;44.632;10.942;2023-05-10T12:37:58;16.50;99.90
15554;DHT22;7878;44.632;10.942;2023-05-10T12:40:24;16.50;99.90
15554;DHT22;7878;44.632;10.942;2023-05-10T12:42:49;16.50;99.90
15554;DHT22;7878;44.632;10.942;2023-05-10T12:45:17;16.50;99.90
15554;DHT22;7878;44.632;10.942;2023-05-10T12:47:43;16.50;99.90
15554;DHT22;7878;44.632;10.942;2023-05-10T12:50:09;16.50;99.90
15554;DHT22;7878;44.632;10.942;2023-05-10T12:52:35;16.60;99.90
15554;DHT22;7878;44.632;10.942;2023-05-10T12:55:01;16.50;99.90
15554;DHT22;7878;44.632;10.942;2023-05-10T12:57:27;16.50;99.90
15554;DHT22;7878;44.632;10.942;2023-05-10T12:59:53;16.50;99.90
15554;DHT22;7878;44.632;10.942;2023-05-10T13:02:19;16.60;99.90
15554;DHT22;7878;44.632;10.942;2023-05-10T13:04:46;16.60;99.90
15554;DHT22;7878;44.632;10.942;2023-05-10T13:07:12;16.60;99.90
15554;DHT22;7878;44.632;10.942;2023-05-10T13:09:39;16.60;99.90
15554;DHT22;7878;44.632;10.942;2023-05-10T13:12:05;16.60;99.90
15554;DHT22;7878;44.632;10.942;2023-05-10T13:14:31;16.60;99.90
15554;DHT22;7878;44.632;10.942;2023-05-10T13:16:57;16.60;99.90
15554;DHT22;7878;44.632;10.942;2023-05-10T13:19:22;16.60;99.90
15554;DHT22;7878;44.632;10.942;2023-05-10T13:21:48;16.60;99.90
15554;DHT22;7878;44.632;10.942;2023-05-10T13:24:14;16.60;99.90
15554;DHT22;7878;44.632;10.942;2023-05-10T13:26:42;16.60;99.90
15554;DHT22;7878;44.632;10.942;2023-05-10T13:29:08;16.60;99.90
15554;DHT22;7878;44.632;10.942;2023-05-10T13:31:34;16.70;99.90
15554;DHT22;7878;44.632;10.942;2023-05-10T13:34:01;16.70;99.90
15554;DHT22;7878;44.632;10.942;2023-05-10T13:36:27;16.70;99.90
15554;DHT22;7878;44.632;10.942;2023-05-10T13:38:53;16.70;99.90
15554;DHT22;7878;44.632;10.942;2023-05-10T13:41:19;16.70;99.90
15554;DHT22;7878;44.632;10.942;2023-05-10T13:43:44;16.70;99.90
15554;DHT22;7878;44.632;10.942;2023-05-10T13:46:10;16.60;99.90
15554;DHT22;7878;44.632;10.942;2023-05-10T13:48:36;16.70;99.90
15554;DHT22;7878;44.632;10.942;2023-05-10T13:51:04;16.60;99.90
15554;DHT22;7878;44.632;10.942;2023-05-10T13:53:30;16.60;99.90
15554;DHT22;7878;44.632;10.942;2023-05-10T13:55:56;16.60;99.90
15554;DHT22;7878;44.632;10.942;2023-05-10T13:58:21;16.70;99.90
15554;DHT22;7878;44.632;10.942;2023-05-10T14:00:47;16.70;99.90
15554;DHT22;7878;44.632;10.942;2023-05-10T14:03:13;16.70;99.90
15554;DHT22;7878;44.632;10.942;2023-05-10T14:05:38;16.70;99.90
15554;DHT22;7878;44.632;10.942;2023-05-10T14:08:04;16.70;99.90
15554;DHT22;7878;44.632;10.942;2023-05-10T14:10:30;16.70;99.90
15554;DHT22;7878;44.632;10.942;2023-05-10T14:12:55;16.70;99.90
15554;DHT22;7878;44.632;10.942;2023-05-10T14:15:21;16.60;99.90
15554;DHT22;7878;44.632;10.942;2023-05-10T14:17:47;16.60;99.90
15554;DHT22;7878;44.632;10.942;2023-05-10T14:20:13;16.60;99.90
15554;DHT22;7878;44.632;10.942;2023-05-10T14:22:38;16.60;99.90
15554;DHT22;7878;44.632;10.942;2023-05-10T14:25:04;16.60;99.90
15554;DHT22;7878;44.632;10.942;2023-05-10T14:27:30;16.60;99.90
15554;DHT22;7878;44.632;10.942;2023-05-10T14:29:56;16.60;99.90
15554;DHT22;7878;44.632;10.942;2023-05-10T14:32:21;16.60;99.90
15554;DHT22;7878;44.632;10.942;2023-05-10T14:34:47;16.60;99.90
15554;DHT22;7878;44.632;10.942;2023-05-10T14:37:13;16.60;99.90
15554;DHT22;7878;44.632;10.942;2023-05-10T14:39:39;16.60;99.90
15554;DHT22;7878;44.632;10.942;2023-05-10T14:42:05;16.60;99.90
15554;DHT22;7878;44.632;10.942;2023-05-10T14:44:31;16.60;99.90
15554;DHT22;7878;44.632;10.942;2023-05-10T14:46:57;16.60;99.90
15554;DHT22;7878;44.632;10.942;2023-05-10T14:49:23;16.60;99.90
15554;DHT22;7878;44.632;10.942;2023-05-10T14:51:50;16.60;99.90
15554;DHT22;7878;44.632;10.942;2023-05-10T14:54:16;16.60;99.90
15554;DHT22;7878;44.632;10.942;2023-05-10T14:56:42;16.60;99.90
15554;DHT22;7878;44.632;10.942;2023-05-10T14:59:08;16.60;99.90
15554;DHT22;7878;44.632;10.942;2023-05-10T15:01:34;16.60;99.90
15554;DHT22;7878;44.632;10.942;2023-05-10T15:04:05;16.50;99.90
15554;DHT22;7878;44.632;10.942;2023-05-10T15:06:32;16.50;99.90
15554;DHT22;7878;44.632;10.942;2023-05-10T15:08:58;16.60;99.90
15554;DHT22;7878;44.632;10.942;2023-05-10T15:11:23;16.50;99.90
15554;DHT22;7878;44.632;10.942;2023-05-10T15:13:49;16.50;99.90
15554;DHT22;7878;44.632;10.942;2023-05-10T15:16:15;16.60;99.90
15554;DHT22;7878;44.632;10.942;2023-05-10T15:18:40;16.60;99.90
15554;DHT22;7878;44.632;10.942;2023-05-10T15:21:06;16.60;99.90
15554;DHT22;7878;44.632;10.942;2023-05-10T15:23:32;16.60;99.90
15554;DHT22;7878;44.632;10.942;2023-05-10T15:25:57;16.60;99.90
15554;DHT22;7878;44.632;10.942;2023-05-10T15:28:23;16.50;99.90
15554;DHT22;7878;44.632;10.942;2023-05-10T15:30:48;16.60;99.90
15554;DHT22;7878;44.632;10.942;2023-05-10T15:33:14;16.50;99.90
15554;DHT22;7878;44.632;10.942;2023-05-10T15:35:40;16.50;99.90
15554;DHT22;7878;44.632;10.942;2023-05-10T15:38:06;16.50;99.90
15554;DHT22;7878;44.632;10.942;2023-05-10T15:40:32;16.60;99.90
15554;DHT22;7878;44.632;10.942;2023-05-10T15:42:58;16.60;99.90
15554;DHT22;7878;44.632;10.942;2023-05-10T15:45:23;16.60;99.90
15554;DHT22;7878;44.632;10.942;2023-05-10T15:47:49;16.60;99.90
15554;DHT22;7878;44.632;10.942;2023-05-10T15:50:15;16.60;99.90
15554;DHT22;7878;44.632;10.942;2023-05-10T15:52:41;16.60;99.90
15554;DHT22;7878;44.632;10.942;2023-05-10T15:55:08;16.60;99.90
15554;DHT22;7878;44.632;10.942;2023-05-10T15:57:40;16.60;99.90
15554;DHT22;7878;44.632;10.942;2023-05-10T16:00:07;16.60;99.90
15554;DHT22;7878;44.632;10.942;2023-05-10T16:02:33;16.60;99.90
15554;DHT22;7878;44.632;10.942;2023-05-10T16:04:59;16.60;99.90
15554;DHT22;7878;44.632;10.942;2023-05-10T16:07:25;16.60;99.90